createdAt,value
2018-01-13T00:00:54.742Z,8.00
2018-01-13T00:03:23.332Z,8.00
2018-01-13T00:05:51.041Z,8.00
2018-01-13T00:08:18.645Z,8.10
2018-01-13T00:10:46.110Z,8.10
2018-01-13T00:13:13.592Z,8.00
2018-01-13T00:15:41.341Z,8.00
2018-01-13T00:18:08.888Z,7.90
2018-01-13T00:20:36.513Z,7.90
2018-01-13T00:23:04.052Z,7.90
2018-01-13T00:25:31.692Z,7.80
2018-01-13T00:27:59.658Z,7.90
2018-01-13T00:30:27.176Z,7.90
2018-01-13T00:32:54.716Z,7.90
2018-01-13T00:35:22.242Z,7.80
2018-01-13T00:37:49.838Z,7.80
2018-01-13T00:40:17.566Z,7.70
2018-01-13T00:42:45.025Z,7.70
2018-01-13T00:45:12.524Z,7.60
2018-01-13T00:47:40.124Z,7.60
2018-01-13T00:50:07.674Z,7.60
2018-01-13T00:52:35.278Z,7.50
2018-01-13T00:55:02.798Z,7.60
2018-01-13T00:57:30.320Z,7.60
2018-01-13T00:59:57.939Z,7.50
2018-01-13T01:02:25.463Z,7.50
2018-01-13T01:04:53.679Z,7.70
2018-01-13T01:07:21.212Z,7.60
2018-01-13T01:09:48.749Z,7.70
2018-01-13T01:12:16.243Z,7.70
2018-01-13T01:14:43.847Z,7.70
2018-01-13T01:17:11.374Z,7.70
2018-01-13T01:19:38.923Z,7.70
2018-01-13T01:22:06.485Z,7.70
2018-01-13T01:24:34.029Z,7.80
2018-01-13T01:27:01.617Z,7.70
2018-01-13T01:29:29.131Z,7.70
2018-01-13T01:31:56.743Z,7.70
2018-01-13T01:34:24.313Z,7.70
2018-01-13T01:36:51.833Z,7.70
2018-01-13T01:39:19.367Z,7.60
2018-01-13T01:41:47.638Z,7.60
2018-01-13T01:44:15.981Z,7.70
2018-01-13T01:46:43.499Z,7.60
2018-01-13T01:49:11.262Z,7.60
2018-01-13T01:51:38.778Z,7.60
2018-01-13T01:54:06.298Z,7.60
2018-01-13T01:56:33.908Z,7.60
2018-01-13T01:59:01.417Z,7.70
2018-01-13T02:01:29.001Z,7.60
2018-01-13T02:03:56.518Z,7.60
2018-01-13T02:06:24.077Z,7.60
2018-01-13T02:08:51.609Z,7.50
2018-01-13T02:11:19.170Z,7.50
2018-01-13T02:13:46.785Z,7.40
2018-01-13T02:16:14.304Z,7.40
2018-01-13T02:18:42.583Z,7.30
2018-01-13T02:21:10.059Z,7.30
2018-01-13T02:23:37.602Z,7.40
2018-01-13T02:26:05.149Z,7.40
2018-01-13T02:28:33.480Z,7.50
2018-01-13T02:31:01.041Z,7.50
2018-01-13T02:33:28.593Z,7.50
2018-01-13T02:35:56.142Z,7.50
2018-01-13T02:38:23.648Z,7.40
2018-01-13T02:40:51.239Z,7.40
2018-01-13T02:43:19.571Z,7.40
2018-01-13T02:45:47.237Z,7.40
2018-01-13T02:48:14.692Z,7.40
2018-01-13T02:50:42.246Z,7.40
2018-01-13T02:53:09.841Z,7.30
2018-01-13T02:55:39.038Z,7.40
2018-01-13T02:58:06.591Z,7.40
2018-01-13T03:00:34.875Z,7.30
2018-01-13T03:03:03.159Z,7.30
2018-01-13T03:05:30.729Z,7.30
2018-01-13T03:07:58.249Z,7.30
2018-01-13T03:10:25.866Z,7.20
2018-01-13T03:12:53.422Z,7.30
2018-01-13T03:15:20.937Z,7.20
2018-01-13T03:17:48.572Z,7.20
2018-01-13T03:20:16.136Z,7.20
2018-01-13T03:22:43.765Z,7.20
2018-01-13T03:25:11.214Z,7.10
2018-01-13T03:27:38.793Z,7.10
2018-01-13T03:30:06.322Z,7.10
2018-01-13T03:32:33.883Z,7.10
2018-01-13T03:35:01.472Z,7.00
2018-01-13T03:37:29.065Z,7.00
2018-01-13T03:39:56.663Z,7.00
2018-01-13T03:42:24.435Z,7.00
2018-01-13T03:44:51.980Z,7.00
2018-01-13T03:47:20.253Z,7.10
2018-01-13T03:49:48.474Z,7.30
2018-01-13T03:52:15.983Z,7.30
2018-01-13T03:54:44.229Z,7.30
2018-01-13T03:57:11.771Z,7.30
2018-01-13T03:59:39.282Z,7.30
2018-01-13T04:02:06.837Z,7.20
2018-01-13T04:04:35.147Z,7.10
2018-01-13T04:07:02.749Z,7.10
2018-01-13T04:09:30.309Z,7.10
2018-01-13T04:11:57.786Z,7.10
2018-01-13T04:14:25.417Z,7.10
2018-01-13T04:16:52.929Z,7.20
2018-01-13T04:19:20.617Z,7.20
2018-01-13T04:21:48.178Z,7.20
2018-01-13T04:24:15.742Z,7.20
2018-01-13T04:26:43.265Z,7.10
2018-01-13T04:29:10.828Z,7.10
2018-01-13T04:31:38.390Z,7.20
2018-01-13T04:34:05.960Z,7.10
2018-01-13T04:36:33.453Z,7.10
2018-01-13T04:39:00.960Z,7.10
2018-01-13T04:41:29.371Z,7.10
2018-01-13T04:43:56.903Z,7.10
2018-01-13T04:46:24.470Z,7.20
2018-01-13T04:48:51.982Z,7.10
2018-01-13T04:51:19.442Z,7.10
2018-01-13T04:53:47.017Z,7.20
2018-01-13T04:56:14.575Z,7.20
2018-01-13T04:58:42.063Z,7.20
2018-01-13T05:01:10.373Z,7.20
2018-01-13T05:03:37.924Z,7.20
2018-01-13T05:06:05.648Z,7.10
2018-01-13T05:08:33.109Z,7.20
2018-01-13T05:11:01.525Z,7.10
2018-01-13T05:13:29.132Z,7.10
2018-01-13T05:15:56.712Z,7.20
2018-01-13T05:18:24.986Z,7.20
2018-01-13T05:20:52.506Z,7.20
2018-01-13T05:23:20.231Z,7.20
2018-01-13T05:25:47.726Z,7.30
2018-01-13T05:28:15.226Z,7.30
2018-01-13T05:30:43.530Z,7.40
2018-01-13T05:33:11.016Z,7.40
2018-01-13T05:35:38.572Z,7.40
2018-01-13T05:38:06.048Z,7.40
2018-01-13T05:40:33.605Z,7.40
2018-01-13T05:43:02.616Z,7.50
2018-01-13T05:45:30.143Z,7.40
2018-01-13T05:47:57.706Z,7.50
2018-01-13T05:50:25.344Z,7.30
2018-01-13T05:52:52.864Z,7.40
2018-01-13T05:55:20.417Z,7.30
2018-01-13T05:57:48.037Z,7.30
2018-01-13T06:00:15.578Z,7.30
2018-01-13T06:02:43.138Z,7.40
2018-01-13T06:05:10.632Z,7.40
2018-01-13T06:07:38.177Z,7.50
2018-01-13T06:10:05.646Z,7.40
2018-01-13T06:12:33.212Z,7.50
2018-01-13T06:15:00.775Z,7.40
2018-01-13T06:17:28.370Z,7.40
2018-01-13T06:19:55.879Z,7.30
2018-01-13T06:22:23.382Z,7.40
2018-01-13T06:24:51.695Z,7.30
2018-01-13T06:27:19.252Z,7.30
2018-01-13T06:29:46.768Z,7.20
2018-01-13T06:32:15.056Z,7.20
2018-01-13T06:34:43.354Z,7.20
2018-01-13T06:37:10.950Z,7.20
2018-01-13T06:39:38.455Z,7.30
2018-01-13T06:42:06.018Z,7.30
2018-01-13T06:44:33.525Z,7.30
2018-01-13T06:47:01.071Z,7.30
2018-01-13T06:49:28.577Z,7.30
2018-01-13T06:51:56.080Z,7.30
2018-01-13T06:54:23.659Z,7.40
2018-01-13T06:56:51.170Z,7.30
2018-01-13T06:59:18.721Z,7.10
2018-01-13T07:01:46.983Z,7.20
2018-01-13T07:04:15.221Z,7.40
2018-01-13T07:06:42.869Z,7.40
2018-01-13T07:09:10.373Z,7.60
2018-01-13T07:11:38.715Z,7.50
2018-01-13T07:14:06.258Z,7.50
2018-01-13T07:16:33.771Z,7.50
2018-01-13T07:19:01.377Z,7.60
2018-01-13T07:21:28.891Z,7.70
2018-01-13T07:23:57.226Z,7.70
2018-01-13T07:26:24.982Z,7.70
2018-01-13T07:28:52.538Z,7.70
2018-01-13T07:31:20.083Z,7.60
2018-01-13T07:33:47.762Z,7.50
2018-01-13T07:36:15.425Z,7.50
2018-01-13T07:38:43.001Z,7.60
2018-01-13T07:41:10.491Z,7.50
2018-01-13T07:43:38.108Z,7.60
2018-01-13T07:46:06.407Z,7.60
2018-01-13T07:48:34.160Z,7.50
2018-01-13T07:51:01.666Z,7.60
2018-01-13T07:53:29.863Z,7.60
2018-01-13T07:55:57.376Z,7.60
2018-01-13T07:58:24.938Z,7.60
2018-01-13T08:00:54.093Z,7.60
2018-01-13T08:03:21.592Z,7.60
2018-01-13T08:05:49.187Z,7.60
2018-01-13T08:08:16.643Z,7.60
2018-01-13T08:10:44.330Z,7.60
2018-01-13T08:13:11.872Z,7.60
2018-01-13T08:15:39.999Z,7.50
2018-01-13T08:18:07.522Z,7.50
2018-01-13T08:20:35.060Z,7.50
2018-01-13T08:23:02.663Z,7.50
2018-01-13T08:25:30.217Z,7.50
2018-01-13T08:27:57.813Z,7.50
2018-01-13T08:30:25.392Z,7.40
2018-01-13T08:32:52.994Z,7.50
2018-01-13T08:35:20.547Z,7.50
2018-01-13T08:37:48.154Z,7.50
2018-01-13T08:40:15.676Z,7.60
2018-01-13T08:42:43.186Z,7.50
2018-01-13T08:45:11.521Z,7.70
2018-01-13T08:47:39.131Z,7.60
2018-01-13T08:50:07.353Z,7.70
2018-01-13T08:52:34.863Z,7.70
2018-01-13T08:55:03.185Z,7.60
2018-01-13T08:57:30.756Z,7.60
2018-01-13T08:59:58.306Z,7.70
2018-01-13T09:02:26.327Z,7.80
2018-01-13T09:04:54.638Z,7.80
2018-01-13T09:07:22.154Z,7.80
2018-01-13T09:09:49.726Z,7.70
2018-01-13T09:12:17.950Z,7.70
2018-01-13T09:14:45.518Z,7.70
2018-01-13T09:17:13.035Z,7.80
2018-01-13T09:19:40.573Z,7.90
2018-01-13T09:22:08.988Z,8.30
2018-01-13T09:24:36.781Z,8.30
2018-01-13T09:27:04.354Z,8.60
2018-01-13T09:29:31.938Z,8.60
2018-01-13T09:31:59.466Z,8.70
2018-01-13T09:34:27.019Z,8.70
2018-01-13T09:36:54.573Z,8.80
2018-01-13T09:39:22.141Z,9.00
2018-01-13T09:41:49.636Z,9.20
2018-01-13T09:44:17.247Z,9.20
2018-01-13T09:46:44.782Z,9.30
2018-01-13T09:49:12.293Z,9.60
2018-01-13T09:51:39.810Z,10.10
2018-01-13T09:54:07.335Z,10.00
2018-01-13T09:56:35.012Z,9.90
2018-01-13T09:59:02.479Z,9.80
2018-01-13T10:01:29.939Z,9.80
2018-01-13T10:03:58.274Z,9.70
2018-01-13T10:06:26.596Z,9.70
2018-01-13T10:08:54.154Z,9.70
2018-01-13T10:11:21.704Z,9.80
2018-01-13T10:13:49.258Z,10.10
2018-01-13T10:16:16.792Z,10.00
2018-01-13T10:18:45.081Z,11.00
2018-01-13T10:21:13.404Z,11.20
2018-01-13T10:23:40.913Z,11.20
2018-01-13T10:26:08.556Z,11.00
2018-01-13T10:28:36.098Z,10.70
2018-01-13T10:31:03.733Z,10.40
2018-01-13T10:33:31.298Z,10.40
2018-01-13T10:35:58.854Z,10.90
2018-01-13T10:38:26.413Z,11.20
2018-01-13T10:40:53.984Z,11.60
2018-01-13T10:43:21.526Z,12.00
2018-01-13T10:45:49.209Z,12.10
2018-01-13T10:48:16.773Z,11.50
2018-01-13T10:50:44.349Z,10.90
2018-01-13T10:53:11.949Z,10.40
2018-01-13T10:55:39.460Z,10.00
2018-01-13T10:58:06.984Z,9.70
2018-01-13T11:00:35.278Z,9.50
2018-01-13T11:03:02.831Z,9.50
2018-01-13T11:05:30.358Z,9.40
2018-01-13T11:07:57.839Z,9.30
2018-01-13T11:10:25.395Z,9.30
2018-01-13T11:12:53.229Z,9.20
2018-01-13T11:15:21.545Z,8.90
2018-01-13T11:17:49.177Z,8.90
2018-01-13T11:20:16.715Z,8.90
2018-01-13T11:22:46.076Z,8.80
2018-01-13T11:25:13.611Z,8.80
2018-01-13T11:27:41.255Z,8.80
2018-01-13T11:30:08.832Z,8.90
2018-01-13T11:32:36.422Z,9.60
2018-01-13T11:35:03.973Z,10.50
2018-01-13T11:37:31.575Z,11.30
2018-01-13T11:39:59.282Z,11.90
2018-01-13T11:42:28.299Z,12.10
2018-01-13T11:44:55.845Z,12.10
2018-01-13T11:47:23.400Z,12.10
2018-01-13T11:49:50.959Z,12.20
2018-01-13T11:52:18.486Z,12.90
2018-01-13T11:54:46.912Z,13.90
2018-01-13T11:57:14.525Z,13.90
2018-01-13T11:59:42.132Z,14.20
2018-01-13T12:02:10.712Z,14.40
2018-01-13T12:04:38.266Z,14.50
2018-01-13T12:07:05.839Z,14.20
2018-01-13T12:09:33.418Z,13.90
2018-01-13T12:12:00.952Z,14.00
2018-01-13T12:14:28.710Z,13.90
2018-01-13T12:16:57.136Z,14.10
2018-01-13T12:19:24.693Z,14.90
2018-01-13T12:21:52.210Z,15.10
2018-01-13T12:24:19.896Z,15.30
2018-01-13T12:26:47.431Z,15.50
2018-01-13T12:29:15.000Z,15.70
2018-01-13T12:31:42.651Z,15.30
2018-01-13T12:34:10.216Z,14.80
2018-01-13T12:36:37.889Z,14.80
2018-01-13T12:39:05.381Z,14.70
2018-01-13T12:41:32.832Z,14.70
2018-01-13T12:44:00.417Z,15.10
2018-01-13T12:46:28.699Z,14.90
2018-01-13T12:48:57.078Z,15.00
2018-01-13T12:51:24.626Z,15.00
2018-01-13T12:53:52.962Z,15.50
2018-01-13T12:56:20.530Z,15.50
2018-01-13T12:58:48.048Z,15.80
2018-01-13T13:01:15.583Z,16.40
2018-01-13T13:03:43.287Z,16.70
2018-01-13T13:06:10.867Z,16.60
2018-01-13T13:08:38.438Z,16.70
2018-01-13T13:11:05.989Z,16.20
2018-01-13T13:13:33.564Z,16.20
2018-01-13T13:16:01.800Z,17.20
2018-01-13T13:18:29.340Z,17.20
2018-01-13T13:20:56.945Z,17.00
2018-01-13T13:23:24.460Z,16.80
2018-01-13T13:25:51.993Z,16.60
2018-01-13T13:28:19.519Z,17.00
2018-01-13T13:30:47.019Z,17.30
2018-01-13T13:33:15.316Z,16.80
2018-01-13T13:35:42.960Z,16.80
2018-01-13T13:38:11.304Z,17.10
2018-01-13T13:40:38.858Z,17.10
2018-01-13T13:43:06.599Z,16.60
2018-01-13T13:45:34.121Z,15.80
2018-01-13T13:48:01.657Z,14.50
2018-01-13T13:50:29.962Z,13.40
2018-01-13T13:52:57.564Z,13.40
2018-01-13T13:55:25.218Z,12.90
2018-01-13T13:57:52.789Z,12.20
2018-01-13T14:00:20.382Z,11.40
2018-01-13T14:02:48.721Z,10.90
2018-01-13T14:05:16.269Z,10.90
2018-01-13T14:07:43.974Z,10.80
2018-01-13T14:10:11.598Z,10.70
2018-01-13T14:12:39.081Z,10.70
2018-01-13T14:15:06.580Z,10.70
2018-01-13T14:17:34.903Z,10.40
2018-01-13T14:20:02.474Z,10.40
2018-01-13T14:22:30.013Z,10.50
2018-01-13T14:24:57.933Z,10.70
2018-01-13T14:27:25.571Z,10.70
2018-01-13T14:29:53.151Z,11.10
2018-01-13T14:32:20.702Z,12.30
2018-01-13T14:34:49.036Z,14.50
2018-01-13T14:37:16.595Z,14.50
2018-01-13T14:39:44.140Z,15.00
2018-01-13T14:42:11.644Z,15.60
2018-01-13T14:44:39.292Z,16.00
2018-01-13T14:47:06.902Z,16.40
2018-01-13T14:49:34.421Z,16.50
2018-01-13T14:52:01.956Z,15.10
2018-01-13T14:54:29.531Z,13.90
2018-01-13T14:56:57.019Z,12.60
2018-01-13T14:59:24.523Z,11.60
2018-01-13T15:01:52.045Z,10.90
2018-01-13T15:04:19.577Z,10.70
2018-01-13T15:06:47.092Z,10.20
2018-01-13T15:09:14.693Z,10.10
2018-01-13T15:11:42.953Z,10.10
2018-01-13T15:14:10.490Z,9.70
2018-01-13T15:16:38.000Z,9.50
2018-01-13T15:19:05.677Z,9.50
2018-01-13T15:21:33.199Z,9.40
2018-01-13T15:24:00.692Z,9.00
2018-01-13T15:26:29.107Z,8.90
2018-01-13T15:28:56.664Z,8.90
2018-01-13T15:31:24.227Z,8.90
2018-01-13T15:33:51.787Z,8.80
2018-01-13T15:36:19.344Z,8.80
2018-01-13T15:38:46.906Z,8.80
2018-01-13T15:41:15.082Z,8.60
2018-01-13T15:43:42.650Z,8.60
2018-01-13T15:46:10.384Z,8.60
2018-01-13T15:48:37.934Z,8.60
2018-01-13T15:51:06.209Z,8.60
2018-01-13T15:53:34.635Z,8.40
2018-01-13T15:56:02.204Z,8.40
2018-01-13T15:58:29.785Z,8.40
2018-01-13T16:00:57.338Z,8.40
2018-01-13T16:03:24.956Z,8.40
2018-01-13T16:05:52.560Z,8.30
2018-01-13T16:08:20.107Z,8.20
2018-01-13T16:10:47.633Z,8.20
2018-01-13T16:13:15.227Z,8.20
2018-01-13T16:15:42.785Z,8.10
2018-01-13T16:18:10.350Z,8.00
2018-01-13T16:20:38.652Z,8.00
2018-01-13T16:23:07.807Z,8.10
2018-01-13T16:25:35.376Z,8.10
2018-01-13T16:28:02.820Z,8.20
2018-01-13T16:30:30.344Z,8.10
2018-01-13T16:32:58.041Z,7.90
2018-01-13T16:35:25.644Z,7.90
2018-01-13T16:37:53.144Z,8.00
2018-01-13T16:40:20.886Z,8.00
2018-01-13T16:42:49.106Z,8.00
2018-01-13T16:45:16.637Z,8.00
2018-01-13T16:47:44.980Z,7.90
2018-01-13T16:50:12.667Z,7.90
2018-01-13T16:52:40.271Z,7.90
2018-01-13T16:55:07.958Z,7.90
2018-01-13T16:57:35.433Z,8.00
2018-01-13T17:00:02.936Z,8.00
2018-01-13T17:02:30.492Z,8.00
2018-01-13T17:04:58.164Z,8.00
2018-01-13T17:07:25.724Z,8.00
2018-01-13T17:09:53.336Z,8.00
2018-01-13T17:12:22.295Z,7.90
2018-01-13T17:14:50.006Z,7.90
2018-01-13T17:17:18.427Z,7.90
2018-01-13T17:19:46.016Z,7.90
2018-01-13T17:22:13.552Z,8.00
2018-01-13T17:24:41.071Z,8.00
2018-01-13T17:27:09.319Z,8.00
2018-01-13T17:29:37.402Z,8.00
2018-01-13T17:32:04.939Z,8.00
2018-01-13T17:34:32.493Z,8.00
2018-01-13T17:37:00.026Z,8.00
2018-01-13T17:39:27.550Z,8.00
2018-01-13T17:41:55.109Z,7.90
2018-01-13T17:44:23.542Z,8.00
2018-01-13T17:46:50.983Z,8.00
2018-01-13T17:49:18.607Z,7.90
2018-01-13T17:51:46.176Z,7.80
2018-01-13T17:54:13.769Z,7.70
2018-01-13T17:56:41.311Z,7.70
2018-01-13T17:59:08.970Z,7.70
2018-01-13T18:01:36.537Z,7.80
2018-01-13T18:04:04.463Z,7.70
2018-01-13T18:06:31.991Z,7.60
2018-01-13T18:08:59.500Z,7.50
2018-01-13T18:11:27.091Z,7.40
2018-01-13T18:13:54.710Z,7.40
2018-01-13T18:16:23.132Z,7.20
2018-01-13T18:18:50.687Z,7.20
2018-01-13T18:21:18.250Z,7.20
2018-01-13T18:23:45.790Z,7.30
2018-01-13T18:26:13.378Z,7.20
2018-01-13T18:28:40.925Z,7.20
2018-01-13T18:31:08.467Z,7.20
2018-01-13T18:33:36.114Z,7.10
2018-01-13T18:36:03.688Z,7.10
2018-01-13T18:38:31.482Z,7.20
2018-01-13T18:40:58.982Z,7.10
2018-01-13T18:43:27.336Z,7.00
2018-01-13T18:45:54.983Z,6.90
2018-01-13T18:48:22.514Z,6.90
2018-01-13T18:50:50.101Z,6.90
2018-01-13T18:53:17.563Z,6.80
2018-01-13T18:55:45.028Z,6.80
2018-01-13T18:58:12.632Z,6.90
2018-01-13T19:00:40.872Z,6.90
2018-01-13T19:03:08.432Z,6.90
2018-01-13T19:05:35.995Z,6.80
2018-01-13T19:08:03.652Z,6.70
2018-01-13T19:10:31.290Z,6.80
2018-01-13T19:12:58.862Z,6.80
2018-01-13T19:15:26.383Z,6.80
2018-01-13T19:17:53.951Z,6.70
2018-01-13T19:20:21.575Z,6.80
2018-01-13T19:22:49.536Z,6.90
2018-01-13T19:25:17.074Z,6.90
2018-01-13T19:27:44.561Z,6.80
2018-01-13T19:30:12.072Z,6.80
2018-01-13T19:32:39.582Z,6.80
2018-01-13T19:35:07.157Z,6.70
2018-01-13T19:37:35.431Z,6.50
2018-01-13T19:40:03.851Z,6.50
2018-01-13T19:42:31.508Z,6.40
2018-01-13T19:44:59.073Z,6.40
2018-01-13T19:47:26.663Z,6.30
2018-01-13T19:49:54.149Z,6.30
2018-01-13T19:52:21.647Z,6.30
2018-01-13T19:54:49.161Z,6.20
2018-01-13T19:57:16.747Z,6.10
2018-01-13T19:59:44.262Z,6.00
2018-01-13T20:02:11.726Z,6.00
2018-01-13T20:04:39.247Z,6.00
2018-01-13T20:07:06.770Z,6.00
2018-01-13T20:09:35.042Z,6.00
2018-01-13T20:12:03.252Z,6.00
2018-01-13T20:14:30.768Z,6.00
2018-01-13T20:16:59.083Z,6.00
2018-01-13T20:19:26.642Z,6.00
2018-01-13T20:21:54.177Z,6.00
2018-01-13T20:24:22.431Z,6.00
2018-01-13T20:26:49.943Z,6.00
2018-01-13T20:29:17.608Z,6.00
2018-01-13T20:31:45.080Z,6.00
2018-01-13T20:34:12.601Z,6.00
2018-01-13T20:36:40.070Z,5.90
2018-01-13T20:39:07.627Z,5.70
2018-01-13T20:41:35.267Z,5.60
2018-01-13T20:44:03.590Z,5.60
2018-01-13T20:46:31.340Z,5.60
2018-01-13T20:48:59.139Z,5.60
2018-01-13T20:51:26.748Z,5.60
2018-01-13T20:53:54.303Z,5.60
2018-01-13T20:56:21.883Z,5.70
2018-01-13T20:58:49.399Z,5.80
2018-01-13T21:01:16.962Z,5.70
2018-01-13T21:03:45.220Z,5.60
2018-01-13T21:06:12.773Z,5.60
2018-01-13T21:08:40.321Z,5.70
2018-01-13T21:11:07.894Z,5.70
2018-01-13T21:13:35.419Z,5.80
2018-01-13T21:16:02.894Z,5.80
2018-01-13T21:18:30.536Z,5.80
2018-01-13T21:20:58.041Z,5.80
2018-01-13T21:23:25.655Z,5.80
2018-01-13T21:25:53.187Z,5.70
2018-01-13T21:28:21.510Z,5.60
2018-01-13T21:30:49.041Z,5.60
2018-01-13T21:33:16.590Z,5.40
2018-01-13T21:35:44.107Z,5.50
2018-01-13T21:38:11.741Z,5.60
2018-01-13T21:40:39.194Z,5.60
2018-01-13T21:43:06.689Z,5.50
2018-01-13T21:45:34.275Z,5.50
2018-01-13T21:48:02.621Z,5.40
2018-01-13T21:50:30.148Z,5.40
2018-01-13T21:52:57.835Z,5.40
2018-01-13T21:55:25.354Z,5.40
2018-01-13T21:57:53.644Z,5.40
2018-01-13T22:00:21.174Z,5.50
2018-01-13T22:02:48.741Z,5.60
2018-01-13T22:05:16.258Z,5.60
2018-01-13T22:07:43.762Z,5.60
2018-01-13T22:10:11.320Z,5.60
2018-01-13T22:12:39.612Z,5.70
2018-01-13T22:15:07.184Z,5.70
2018-01-13T22:17:34.758Z,5.80
2018-01-13T22:20:02.215Z,5.70
2018-01-13T22:22:29.699Z,5.80
2018-01-13T22:24:57.322Z,5.80
2018-01-13T22:27:24.886Z,5.80
2018-01-13T22:29:52.432Z,5.70
2018-01-13T22:32:19.961Z,5.70
2018-01-13T22:34:47.572Z,5.70
2018-01-13T22:37:15.070Z,5.70
2018-01-13T22:39:42.776Z,5.70
2018-01-13T22:42:10.380Z,5.70
2018-01-13T22:44:38.004Z,5.80
2018-01-13T22:47:05.561Z,5.80
2018-01-13T22:49:33.149Z,6.00
2018-01-13T22:52:00.881Z,5.90
2018-01-13T22:54:28.388Z,5.90
2018-01-13T22:56:56.754Z,5.80
2018-01-13T22:59:24.323Z,5.80
2018-01-13T23:01:51.902Z,5.80
2018-01-13T23:04:19.470Z,5.80
2018-01-13T23:06:47.875Z,5.70
2018-01-13T23:09:15.429Z,5.70
2018-01-13T23:11:42.943Z,5.70
2018-01-13T23:14:11.944Z,6.00
2018-01-13T23:16:40.282Z,5.90
2018-01-13T23:19:07.846Z,5.90
2018-01-13T23:21:35.460Z,5.90
2018-01-13T23:24:02.984Z,5.80
2018-01-13T23:26:30.532Z,5.70
2018-01-13T23:28:58.166Z,5.70
2018-01-13T23:31:25.701Z,5.70
2018-01-13T23:33:53.188Z,5.70
2018-01-13T23:36:20.732Z,5.70
2018-01-13T23:38:48.345Z,5.70
2018-01-13T23:41:15.878Z,5.70
2018-01-13T23:43:43.422Z,5.60
2018-01-13T23:46:11.277Z,5.60
2018-01-13T23:48:38.956Z,5.50
2018-01-13T23:51:06.612Z,5.50
2018-01-13T23:53:34.128Z,5.60
2018-01-13T23:56:02.446Z,5.70
2018-01-13T23:58:29.989Z,5.70
